Time;durP1;ratioP1;P1;durP2;ratioP2;P2;SDS_P1;SDS_P2;PMS_P1;PMS_P2;Temp;Humidity;BMP_temperature;BMP_pressure;BME280_temperature;BME280_humidity;BME280_pressure;Samples;Min_cycle;Max_cycle;Signal;HPM_P1;HPM_P2
2023/11/26 00:00:13;;;;;;;15.30;11.70;;;;;;;;;;525078;28;1289;-71
2023/11/26 00:00:29;;;;;;;18.80;11.98;;;;;;;;;;526010;28;1044;-72
2023/11/26 00:00:47;;;;;;;20.63;12.00;;;;;;;;;;523687;28;1448;-71
2023/11/26 00:01:02;;;;;;;17.30;11.35;;;;;;;;;;521488;28;1230;-71
2023/11/26 00:01:18;;;;;;;16.73;11.33;;;;;;;;;;519663;28;1395;-71
2023/11/26 00:01:33;;;;;;;17.73;11.90;;;;;;;;;;519464;28;1248;-71
2023/11/26 00:01:48;;;;;;;16.27;11.20;;;;;;;;;;519565;28;1424;-71
2023/11/26 00:02:04;;;;;;;14.93;10.50;;;;;;;;;;519759;28;859;-71
2023/11/26 00:02:20;;;;;;;13.77;9.90;;;;;;;;;;519451;28;1194;-71
2023/11/26 00:02:35;;;;;;;12.27;9.75;;;;;;;;;;520367;28;803;-71
2023/11/26 00:02:51;;;;;;;13.33;10.23;;;;;;;;;;521556;28;791;-72
2023/11/26 00:03:06;;;;;;;12.95;9.73;;;;;;;;;;521771;28;1322;-71
2023/11/26 00:03:21;;;;;;;11.90;9.53;;;;;;;;;;524094;28;1064;-71
2023/11/26 00:03:37;;;;;;;12.82;9.82;;;;;;;;;;523669;28;811;-71
2023/11/26 00:03:52;;;;;;;12.33;9.53;;;;;;;;;;522741;28;1167;-71
2023/11/26 00:04:10;;;;;;;14.27;10.23;;;;;;;;;;524360;28;1190;-71
2023/11/26 00:04:26;;;;;;;17.52;11.20;;;;;;;;;;521616;28;1046;-71
2023/11/26 00:04:41;;;;;;;16.70;11.20;;;;;;;;;;521977;28;807;-71
2023/11/26 00:04:57;;;;;;;16.48;11.23;;;;;;;;;;521848;28;845;-71
2023/11/26 00:05:12;;;;;;;14.90;10.40;;;;;;;;;;520892;28;1806;-71
2023/11/26 00:05:28;;;;;;;14.15;10.00;;;;;;;;;;521619;28;1207;-71
2023/11/26 00:05:43;;;;;;;14.77;10.40;;;;;;;;;;521672;28;795;-71
2023/11/26 00:05:58;;;;;;;17.00;11.07;;;;;;;;;;519536;28;1244;-71
2023/11/26 00:06:14;;;;;;;16.38;10.93;;;;;;;;;;519937;28;1219;-71
2023/11/26 00:06:29;;;;;;;15.13;10.67;;;;;;;;;;521603;28;1028;-71
2023/11/26 00:06:44;;;;;;;16.27;10.77;;;;;;;;;;521745;28;827;-71
2023/11/26 00:07:00;;;;;;;14.90;10.65;;;;;;;;;;523211;28;1348;-71
2023/11/26 00:07:15;;;;;;;14.50;10.90;;;;;;;;;;522621;28;802;-71
2023/11/26 00:07:31;;;;;;;14.60;10.70;;;;;;;;;;521411;28;1496;-71
2023/11/26 00:07:46;;;;;;;13.23;10.07;;;;;;;;;;521980;28;866;-71
2023/11/26 00:08:02;;;;;;;12.15;9.55;;;;;;;;;;521854;28;1923;-71
2023/11/26 00:08:17;;;;;;;12.87;9.70;;;;;;;;;;521881;28;929;-71
2023/11/26 00:08:32;;;;;;;13.50;10.35;;;;;;;;;;521802;28;1144;-71
2023/11/26 00:08:48;;;;;;;15.50;10.90;;;;;;;;;;519399;28;1295;-71
2023/11/26 00:09:03;;;;;;;16.53;10.97;;;;;;;;;;518939;28;1834;-71
2023/11/26 00:09:18;;;;;;;14.57;10.43;;;;;;;;;;519762;28;954;-71
2023/11/26 00:09:34;;;;;;;14.03;10.40;;;;;;;;;;521296;28;1298;-71
2023/11/26 00:09:49;;;;;;;14.70;10.53;;;;;;;;;;517652;28;1430;-71
2023/11/26 00:10:06;;;;;;;15.80;10.57;;;;;;;;;;519714;28;807;-71
2023/11/26 00:10:21;;;;;;;17.63;11.32;;;;;;;;;;519640;28;1017;-71
2023/11/26 00:10:36;;;;;;;19.13;11.80;;;;;;;;;;520101;28;898;-71
2023/11/26 00:10:51;;;;;;;18.80;11.38;;;;;;;;;;519802;28;1133;-71
2023/11/26 00:11:07;;;;;;;17.93;11.30;;;;;;;;;;519597;28;902;-71
2023/11/26 00:11:22;;;;;;;17.70;11.30;;;;;;;;;;519052;28;1302;-71
2023/11/26 00:11:37;;;;;;;17.60;11.50;;;;;;;;;;519990;28;799;-71
2023/11/26 00:11:53;;;;;;;16.33;11.47;;;;;;;;;;521392;28;1301;-72
2023/11/26 00:12:08;;;;;;;15.23;10.77;;;;;;;;;;520509;28;1133;-71
2023/11/26 00:12:23;;;;;;;15.50;10.65;;;;;;;;;;521522;28;1040;-71
2023/11/26 00:12:39;;;;;;;18.00;11.70;;;;;;;;;;520785;28;1156;-71
2023/11/26 00:12:54;;;;;;;18.27;11.87;;;;;;;;;;521932;28;811;-71
2023/11/26 00:13:09;;;;;;;16.03;10.70;;;;;;;;;;521647;28;985;-71
2023/11/26 00:13:25;;;;;;;14.97;10.37;;;;;;;;;;520485;28;1434;-71
2023/11/26 00:13:40;;;;;;;14.33;10.47;;;;;;;;;;521747;28;1075;-70
2023/11/26 00:13:55;;;;;;;14.10;10.15;;;;;;;;;;519764;28;970;-70
2023/11/26 00:14:11;;;;;;;14.17;10.67;;;;;;;;;;519265;28;901;-71
2023/11/26 00:14:26;;;;;;;17.10;11.88;;;;;;;;;;520511;28;1461;-71
2023/11/26 00:14:42;;;;;;;18.63;12.20;;;;;;;;;;523772;28;1250;-71
2023/11/26 00:14:57;;;;;;;17.10;12.10;;;;;;;;;;523866;28;909;-71
2023/11/26 00:15:13;;;;;;;18.40;11.93;;;;;;;;;;523933;28;825;-71
2023/11/26 00:15:28;;;;;;;20.13;12.15;;;;;;;;;;523714;28;1068;-71
2023/11/26 00:15:43;;;;;;;19.07;12.40;;;;;;;;;;523692;28;1076;-71
2023/11/26 00:16:02;;;;;;;16.83;11.93;;;;;;;;;;523647;28;1154;-71
2023/11/26 00:16:17;;;;;;;14.77;11.38;;;;;;;;;;523658;28;1087;-71
2023/11/26 00:16:37;;;;;;;15.20;11.47;;;;;;;;;;525786;28;1268;-71
2023/11/26 00:16:52;;;;;;;18.27;11.80;;;;;;;;;;525660;28;1301;-71
2023/11/26 00:17:07;;;;;;;18.37;11.63;;;;;;;;;;526185;28;924;-72
2023/11/26 00:17:24;;;;;;;13.97;10.23;;;;;;;;;;525876;28;1028;-71
2023/11/26 00:17:39;;;;;;;13.80;10.25;;;;;;;;;;526132;28;949;-71
2023/11/26 00:17:55;;;;;;;15.63;10.97;;;;;;;;;;526129;28;818;-71
2023/11/26 00:18:10;;;;;;;16.20;10.67;;;;;;;;;;523241;28;1590;-71
2023/11/26 00:18:28;;;;;;;16.43;10.50;;;;;;;;;;522450;28;1849;-71
2023/11/26 00:18:43;;;;;;;19.45;11.35;;;;;;;;;;522416;28;1510;-71
2023/11/26 00:18:58;;;;;;;19.87;11.80;;;;;;;;;;520357;28;2179;-72
2023/11/26 00:19:16;;;;;;;19.70;11.87;;;;;;;;;;519922;28;993;-71
2023/11/26 00:19:34;;;;;;;17.35;10.90;;;;;;;;;;519828;28;1109;-71
2023/11/26 00:19:49;;;;;;;13.80;10.23;;;;;;;;;;519562;28;1248;-71
2023/11/26 00:20:06;;;;;;;15.03;10.93;;;;;;;;;;519831;28;897;-71
2023/11/26 00:20:21;;;;;;;14.57;10.98;;;;;;;;;;517432;28;1566;-71
2023/11/26 00:20:37;;;;;;;15.33;10.83;;;;;;;;;;517706;28;792;-71
2023/11/26 00:20:52;;;;;;;15.00;10.70;;;;;;;;;;517812;28;949;-71
2023/11/26 00:21:08;;;;;;;14.38;10.38;;;;;;;;;;518821;28;752;-71
2023/11/26 00:21:24;;;;;;;15.97;10.83;;;;;;;;;;521252;28;1357;-71
2023/11/26 00:21:39;;;;;;;16.33;10.98;;;;;;;;;;521610;28;898;-71
2023/11/26 00:21:55;;;;;;;17.53;11.40;;;;;;;;;;521439;28;1416;-71
2023/11/26 00:22:11;;;;;;;16.85;11.52;;;;;;;;;;520037;28;1392;-71
2023/11/26 00:22:28;;;;;;;15.10;10.43;;;;;;;;;;522616;28;1056;-71
2023/11/26 00:22:43;;;;;;;16.67;10.93;;;;;;;;;;523222;28;1103;-71
2023/11/26 00:22:58;;;;;;;17.47;11.27;;;;;;;;;;521787;28;871;-71
2023/11/26 00:23:14;;;;;;;16.20;10.27;;;;;;;;;;521711;28;921;-71
2023/11/26 00:23:30;;;;;;;16.27;10.20;;;;;;;;;;521393;28;1068;-71
2023/11/26 00:23:46;;;;;;;14.35;10.20;;;;;;;;;;521763;28;893;-71
2023/11/26 00:24:02;;;;;;;13.95;10.68;;;;;;;;;;522174;28;902;-71
2023/11/26 00:24:17;;;;;;;15.27;10.68;;;;;;;;;;523727;28;945;-71
2023/11/26 00:24:32;;;;;;;16.87;10.60;;;;;;;;;;525706;28;1087;-71
2023/11/26 00:24:48;;;;;;;19.23;11.45;;;;;;;;;;526042;28;1083;-71
2023/11/26 00:25:04;;;;;;;18.73;11.57;;;;;;;;;;525189;28;1147;-72
2023/11/26 00:25:19;;;;;;;16.98;11.23;;;;;;;;;;522716;28;1354;-71
2023/11/26 00:25:34;;;;;;;17.07;11.20;;;;;;;;;;523961;28;1338;-71
2023/11/26 00:25:50;;;;;;;15.60;10.85;;;;;;;;;;523995;28;920;-71
2023/11/26 00:26:05;;;;;;;14.83;10.37;;;;;;;;;;523259;28;1822;-71
2023/11/26 00:26:21;;;;;;;16.47;10.53;;;;;;;;;;520297;28;1156;-72
2023/11/26 00:26:36;;;;;;;16.15;10.68;;;;;;;;;;521601;28;885;-71
2023/11/26 00:26:52;;;;;;;12.38;9.50;;;;;;;;;;521694;28;862;-71
2023/11/26 00:27:07;;;;;;;11.30;9.00;;;;;;;;;;521837;28;1056;-72
2023/11/26 00:27:23;;;;;;;12.70;9.60;;;;;;;;;;522298;28;1111;-71
2023/11/26 00:27:39;;;;;;;16.00;10.80;;;;;;;;;;523808;28;933;-71
2023/11/26 00:27:54;;;;;;;17.27;10.63;;;;;;;;;;523758;28;1916;-71
2023/11/26 00:28:09;;;;;;;14.45;9.57;;;;;;;;;;524253;28;850;-71
2023/11/26 00:28:25;;;;;;;16.57;10.27;;;;;;;;;;526046;28;1024;-71
2023/11/26 00:28:40;;;;;;;17.40;10.70;;;;;;;;;;525577;28;771;-71
2023/11/26 00:28:55;;;;;;;16.30;10.48;;;;;;;;;;524273;28;1289;-71
2023/11/26 00:29:11;;;;;;;18.10;11.03;;;;;;;;;;521395;28;1423;-71
2023/11/26 00:29:26;;;;;;;16.47;10.70;;;;;;;;;;521716;28;1100;-71
2023/11/26 00:29:41;;;;;;;14.25;10.02;;;;;;;;;;521150;28;1958;-71
2023/11/26 00:29:57;;;;;;;14.93;10.17;;;;;;;;;;521556;28;882;-71
2023/11/26 00:30:12;;;;;;;17.17;10.20;;;;;;;;;;521632;28;1136;-71
2023/11/26 00:30:29;;;;;;;16.23;9.90;;;;;;;;;;521662;28;1064;-71
2023/11/26 00:30:44;;;;;;;14.15;9.85;;;;;;;;;;521400;28;1341;-71
2023/11/26 00:30:59;;;;;;;13.07;9.40;;;;;;;;;;521005;28;1509;-71
2023/11/26 00:31:15;;;;;;;15.80;9.90;;;;;;;;;;523925;28;813;-71
2023/11/26 00:31:31;;;;;;;18.50;10.80;;;;;;;;;;523509;28;1660;-71
2023/11/26 00:31:47;;;;;;;14.10;9.77;;;;;;;;;;521646;28;945;-71
2023/11/26 00:32:03;;;;;;;10.63;8.65;;;;;;;;;;521756;28;980;-71
2023/11/26 00:32:18;;;;;;;12.57;9.23;;;;;;;;;;521537;28;1072;-71
2023/11/26 00:32:33;;;;;;;14.43;9.43;;;;;;;;;;522029;28;1270;-71
2023/11/26 00:32:48;;;;;;;12.15;9.00;;;;;;;;;;521673;28;1005;-71
2023/11/26 00:33:04;;;;;;;12.50;9.50;;;;;;;;;;521898;28;883;-71
2023/11/26 00:33:20;;;;;;;14.33;10.00;;;;;;;;;;521555;28;1188;-71
2023/11/26 00:33:36;;;;;;;16.83;10.27;;;;;;;;;;522185;28;956;-71
2023/11/26 00:33:51;;;;;;;17.83;10.73;;;;;;;;;;523711;28;834;-71
2023/11/26 00:34:07;;;;;;;16.75;10.68;;;;;;;;;;523641;28;870;-71
2023/11/26 00:34:22;;;;;;;15.93;10.57;;;;;;;;;;523492;28;981;-71
2023/11/26 00:34:38;;;;;;;16.23;10.83;;;;;;;;;;523834;28;873;-71
2023/11/26 00:34:54;;;;;;;18.05;10.77;;;;;;;;;;523798;28;834;-71
2023/11/26 00:35:09;;;;;;;17.90;10.18;;;;;;;;;;523817;28;877;-72
2023/11/26 00:35:25;;;;;;;16.00;9.90;;;;;;;;;;523741;28;1060;-71
2023/11/26 00:35:40;;;;;;;15.50;9.60;;;;;;;;;;523864;28;838;-71
2023/11/26 00:35:55;;;;;;;17.53;9.83;;;;;;;;;;523983;28;989;-71
2023/11/26 00:36:19;;;;;;;16.83;9.70;;;;;;;;;;523755;28;867;-71
2023/11/26 00:36:34;;;;;;;14.80;9.38;;;;;;;;;;521401;28;878;-71
2023/11/26 00:36:49;;;;;;;13.43;9.33;;;;;;;;;;520152;28;1152;-71
2023/11/26 00:37:05;;;;;;;13.57;9.40;;;;;;;;;;519196;28;1828;-71
2023/11/26 00:37:20;;;;;;;14.83;9.10;;;;;;;;;;517966;28;1194;-71
2023/11/26 00:37:35;;;;;;;14.55;8.93;;;;;;;;;;518032;28;894;-71
2023/11/26 00:37:50;;;;;;;13.17;8.80;;;;;;;;;;517759;28;795;-71
2023/11/26 00:38:06;;;;;;;13.30;8.43;;;;;;;;;;517680;28;973;-71
2023/11/26 00:38:21;;;;;;;13.82;8.77;;;;;;;;;;517527;28;1034;-71
2023/11/26 00:38:36;;;;;;;12.73;8.77;;;;;;;;;;515788;28;958;-71
2023/11/26 00:38:52;;;;;;;12.00;8.53;;;;;;;;;;516846;28;1278;-72
2023/11/26 00:39:08;;;;;;;12.40;8.63;;;;;;;;;;518189;28;1425;-71
2023/11/26 00:39:24;;;;;;;12.23;8.52;;;;;;;;;;520553;28;879;-71
2023/11/26 00:39:39;;;;;;;13.32;8.65;;;;;;;;;;521655;28;977;-71
2023/11/26 00:39:55;;;;;;;13.90;8.90;;;;;;;;;;521777;28;803;-71
2023/11/26 00:40:12;;;;;;;12.40;8.52;;;;;;;;;;521704;28;882;-71
2023/11/26 00:40:27;;;;;;;13.52;8.73;;;;;;;;;;522322;28;1075;-71
2023/11/26 00:40:43;;;;;;;14.60;9.23;;;;;;;;;;524619;28;898;-71
2023/11/26 00:40:58;;;;;;;15.70;9.80;;;;;;;;;;524652;28;1140;-71
2023/11/26 00:41:13;;;;;;;16.17;9.67;;;;;;;;;;521283;28;1248;-71
2023/11/26 00:41:29;;;;;;;16.60;9.43;;;;;;;;;;521479;28;1307;-71
2023/11/26 00:41:46;;;;;;;16.67;9.40;;;;;;;;;;521824;28;1002;-71
2023/11/26 00:42:01;;;;;;;15.73;9.45;;;;;;;;;;521773;28;953;-71
2023/11/26 00:42:17;;;;;;;18.37;9.90;;;;;;;;;;521674;28;883;-71
2023/11/26 00:42:32;;;;;;;18.08;10.05;;;;;;;;;;520995;28;2199;-71
2023/11/26 00:42:48;;;;;;;15.57;9.97;;;;;;;;;;521572;28;795;-71
2023/11/26 00:43:04;;;;;;;17.05;10.13;;;;;;;;;;522138;28;1394;-71
2023/11/26 00:43:19;;;;;;;18.33;10.32;;;;;;;;;;523645;28;1084;-71
2023/11/26 00:43:35;;;;;;;17.10;10.10;;;;;;;;;;522710;28;1183;-71
2023/11/26 00:43:51;;;;;;;16.58;9.93;;;;;;;;;;522810;28;1253;-71
2023/11/26 00:44:06;;;;;;;16.77;9.83;;;;;;;;;;523638;28;1129;-71
2023/11/26 00:44:25;;;;;;;16.63;9.70;;;;;;;;;;523361;28;1229;-71
2023/11/26 00:44:40;;;;;;;17.50;10.15;;;;;;;;;;523701;28;874;-71
2023/11/26 00:44:56;;;;;;;17.92;10.65;;;;;;;;;;523905;28;866;-71
2023/11/26 00:45:11;;;;;;;18.67;10.87;;;;;;;;;;521662;28;1155;-71
2023/11/26 00:45:26;;;;;;;17.90;10.50;;;;;;;;;;520311;28;1348;-71
2023/11/26 00:45:42;;;;;;;16.25;10.25;;;;;;;;;;519715;28;894;-71
2023/11/26 00:45:57;;;;;;;16.80;10.47;;;;;;;;;;519663;28;874;-71
2023/11/26 00:46:12;;;;;;;17.80;10.83;;;;;;;;;;519663;28;764;-71
2023/11/26 00:46:27;;;;;;;18.17;10.97;;;;;;;;;;521052;28;1088;-71
2023/11/26 00:46:43;;;;;;;18.45;11.10;;;;;;;;;;521744;28;950;-72
2023/11/26 00:46:59;;;;;;;19.17;11.27;;;;;;;;;;521772;28;930;-71
2023/11/26 00:47:14;;;;;;;20.33;11.15;;;;;;;;;;524026;28;1114;-71
2023/11/26 00:47:30;;;;;;;19.85;10.98;;;;;;;;;;523461;28;1369;-72
2023/11/26 00:47:45;;;;;;;17.13;10.77;;;;;;;;;;523792;28;1160;-71
2023/11/26 00:48:01;;;;;;;14.27;10.23;;;;;;;;;;522750;28;2715;-71
2023/11/26 00:48:16;;;;;;;16.90;10.50;;;;;;;;;;520591;28;2044;-71
2023/11/26 00:48:31;;;;;;;18.83;10.87;;;;;;;;;;519126;28;1730;-71
2023/11/26 00:48:47;;;;;;;18.45;10.70;;;;;;;;;;519679;28;878;-71
2023/11/26 00:49:05;;;;;;;16.70;10.33;;;;;;;;;;518898;28;1253;-71
2023/11/26 00:49:21;;;;;;;14.15;9.57;;;;;;;;;;518204;28;1880;-71
2023/11/26 00:49:37;;;;;;;14.82;9.77;;;;;;;;;;521620;28;874;-71
2023/11/26 00:49:54;;;;;;;15.27;9.97;;;;;;;;;;521792;28;930;-71
2023/11/26 00:50:10;;;;;;;15.82;9.90;;;;;;;;;;518763;28;1838;-71
2023/11/26 00:50:26;;;;;;;16.83;10.27;;;;;;;;;;520782;28;1061;-71
2023/11/26 00:50:41;;;;;;;15.90;9.73;;;;;;;;;;521548;28;831;-71
2023/11/26 00:50:56;;;;;;;16.15;9.30;;;;;;;;;;521762;28;815;-71
2023/11/26 00:51:19;;;;;;;15.53;9.60;;;;;;;;;;522597;28;989;-71
2023/11/26 00:51:34;;;;;;;17.15;9.70;;;;;;;;;;521286;28;2174;-71
2023/11/26 00:51:49;;;;;;;17.75;9.80;;;;;;;;;;519709;28;1261;-71
2023/11/26 00:52:06;;;;;;;15.40;9.43;;;;;;;;;;520033;28;1360;-71
2023/11/26 00:52:21;;;;;;;15.07;9.43;;;;;;;;;;520085;28;1112;-71
2023/11/26 00:52:37;;;;;;;17.07;9.77;;;;;;;;;;519570;28;1289;-71
2023/11/26 00:52:52;;;;;;;16.43;9.13;;;;;;;;;;519528;28;1286;-71
2023/11/26 00:53:07;;;;;;;14.82;9.02;;;;;;;;;;517663;28;1166;-71
2023/11/26 00:53:23;;;;;;;14.93;9.37;;;;;;;;;;517297;28;1223;-71
2023/11/26 00:53:39;;;;;;;14.60;9.27;;;;;;;;;;519016;28;1010;-71
2023/11/26 00:53:54;;;;;;;13.87;9.10;;;;;;;;;;517650;28;997;-71
2023/11/26 00:54:09;;;;;;;14.18;8.95;;;;;;;;;;517157;28;1340;-71
2023/11/26 00:54:24;;;;;;;13.83;8.73;;;;;;;;;;515103;28;1897;-71
2023/11/26 00:54:40;;;;;;;12.60;8.70;;;;;;;;;;517616;28;957;-71
2023/11/26 00:54:55;;;;;;;13.70;8.60;;;;;;;;;;517917;28;1287;-71
2023/11/26 00:55:11;;;;;;;16.23;9.05;;;;;;;;;;519700;28;834;-71
2023/11/26 00:55:26;;;;;;;18.67;9.40;;;;;;;;;;519672;28;1026;-71
2023/11/26 00:55:41;;;;;;;16.73;9.30;;;;;;;;;;519458;28;977;-71
2023/11/26 00:55:57;;;;;;;14.33;8.83;;;;;;;;;;519953;28;878;-71
2023/11/26 00:56:12;;;;;;;15.48;8.90;;;;;;;;;;519832;28;1175;-71
2023/11/26 00:56:27;;;;;;;15.00;8.43;;;;;;;;;;521625;28;1233;-71
2023/11/26 00:56:43;;;;;;;14.47;8.13;;;;;;;;;;521846;28;882;-71
2023/11/26 00:56:58;;;;;;;14.10;8.30;;;;;;;;;;521790;28;898;-71
2023/11/26 00:57:13;;;;;;;13.60;8.13;;;;;;;;;;519747;28;899;-71
2023/11/26 00:57:29;;;;;;;13.57;8.33;;;;;;;;;;517520;28;1496;-71
2023/11/26 00:57:44;;;;;;;13.57;8.23;;;;;;;;;;517536;28;859;-71
2023/11/26 00:57:59;;;;;;;15.63;8.32;;;;;;;;;;515078;28;2029;-71
2023/11/26 00:58:14;;;;;;;16.30;8.50;;;;;;;;;;517302;28;1302;-71
2023/11/26 00:58:30;;;;;;;14.10;8.27;;;;;;;;;;519171;28;1341;-71
2023/11/26 00:58:45;;;;;;;13.70;8.23;;;;;;;;;;519751;28;835;-71
2023/11/26 00:59:00;;;;;;;14.53;8.07;;;;;;;;;;517472;28;1250;-71
2023/11/26 00:59:16;;;;;;;14.13;7.80;;;;;;;;;;519679;28;1158;-71
2023/11/26 00:59:31;;;;;;;12.98;7.88;;;;;;;;;;521078;28;1751;-71
2023/11/26 00:59:46;;;;;;;14.63;8.10;;;;;;;;;;521392;28;1010;-71
2023/11/26 01:00:10;;;;;;;15.87;8.00;;;;;;;;;;521610;28;918;-71
2023/11/26 01:00:25;;;;;;;15.18;7.97;;;;;;;;;;520637;28;1352;-71
2023/11/26 01:00:41;;;;;;;13.80;8.00;;;;;;;;;;521551;28;974;-71
2023/11/26 01:00:56;;;;;;;14.18;7.80;;;;;;;;;;522984;28;1315;-71
2023/11/26 01:01:12;;;;;;;12.97;7.70;;;;;;;;;;524552;28;1359;-71
2023/11/26 01:01:27;;;;;;;10.88;7.45;;;;;;;;;;523540;28;1411;-71
2023/11/26 01:01:42;;;;;;;11.50;7.40;;;;;;;;;;520964;28;1247;-71
2023/11/26 01:01:58;;;;;;;13.10;7.63;;;;;;;;;;521594;28;803;-71
2023/11/26 01:02:13;;;;;;;14.40;7.90;;;;;;;;;;519601;28;1336;-71
2023/11/26 01:02:33;;;;;;;13.10;7.90;;;;;;;;;;519521;28;1104;-71
2023/11/26 01:02:48;;;;;;;12.18;7.90;;;;;;;;;;519420;28;1100;-71
2023/11/26 01:03:04;;;;;;;13.53;7.80;;;;;;;;;;519615;28;1081;-71
2023/11/26 01:03:19;;;;;;;15.00;8.05;;;;;;;;;;519723;28;1021;-71
2023/11/26 01:03:35;;;;;;;14.77;8.10;;;;;;;;;;519393;28;1164;-71
2023/11/26 01:03:50;;;;;;;13.32;7.63;;;;;;;;;;519457;28;855;-71
2023/11/26 01:04:06;;;;;;;12.90;7.70;;;;;;;;;;520064;28;918;-71
2023/11/26 01:04:22;;;;;;;12.07;7.70;;;;;;;;;;521491;28;1076;-71
2023/11/26 01:04:37;;;;;;;11.90;7.50;;;;;;;;;;521743;28;851;-71
2023/11/26 01:04:53;;;;;;;12.30;7.53;;;;;;;;;;521785;28;886;-70
2023/11/26 01:05:08;;;;;;;12.93;7.70;;;;;;;;;;521046;28;1902;-71
2023/11/26 01:05:23;;;;;;;12.40;7.80;;;;;;;;;;521752;28;926;-71
2023/11/26 01:05:39;;;;;;;11.48;7.57;;;;;;;;;;523877;28;1062;-71
2023/11/26 01:05:54;;;;;;;11.73;7.30;;;;;;;;;;524088;28;807;-71
2023/11/26 01:06:09;;;;;;;11.50;7.20;;;;;;;;;;521306;28;1269;-71
2023/11/26 01:06:25;;;;;;;11.27;7.40;;;;;;;;;;521551;28;1040;-71
2023/11/26 01:06:40;;;;;;;12.40;7.50;;;;;;;;;;521562;28;1136;-71
2023/11/26 01:06:55;;;;;;;13.67;7.47;;;;;;;;;;521788;28;894;-71
2023/11/26 01:07:11;;;;;;;13.73;7.55;;;;;;;;;;521687;28;897;-71
2023/11/26 01:07:30;;;;;;;14.07;7.50;;;;;;;;;;521445;28;1044;-71
2023/11/26 01:07:45;;;;;;;13.20;7.50;;;;;;;;;;521710;28;933;-71
2023/11/26 01:08:01;;;;;;;12.70;7.63;;;;;;;;;;522402;28;1924;-71
2023/11/26 01:08:16;;;;;;;11.67;7.30;;;;;;;;;;522705;28;2543;-71
2023/11/26 01:08:32;;;;;;;10.52;6.95;;;;;;;;;;524486;28;1553;-71
2023/11/26 01:08:47;;;;;;;10.77;7.30;;;;;;;;;;522832;28;1753;-71
2023/11/26 01:09:04;;;;;;;12.73;7.47;;;;;;;;;;521364;28;1465;-71
2023/11/26 01:09:19;;;;;;;13.55;7.43;;;;;;;;;;521545;28;922;-71
2023/11/26 01:09:34;;;;;;;12.40;7.40;;;;;;;;;;523782;28;1531;-71
2023/11/26 01:09:49;;;;;;;12.15;7.13;;;;;;;;;;519972;28;1192;-71
2023/11/26 01:10:05;;;;;;;12.17;7.30;;;;;;;;;;520378;28;811;-71
2023/11/26 01:10:21;;;;;;;12.73;7.47;;;;;;;;;;521408;28;1307;-71
2023/11/26 01:10:37;;;;;;;13.05;7.40;;;;;;;;;;521012;28;1358;-71
2023/11/26 01:10:52;;;;;;;13.63;7.53;;;;;;;;;;519517;28;1208;-71
2023/11/26 01:11:14;;;;;;;13.53;7.30;;;;;;;;;;519520;28;819;-71
2023/11/26 01:11:30;;;;;;;11.90;7.07;;;;;;;;;;521027;28;1025;-71
2023/11/26 01:11:45;;;;;;;12.33;7.40;;;;;;;;;;523072;28;804;-71
2023/11/26 01:12:00;;;;;;;14.73;7.67;;;;;;;;;;520941;28;1758;-71
2023/11/26 01:12:15;;;;;;;14.93;7.60;;;;;;;;;;519343;28;1172;-71
2023/11/26 01:12:31;;;;;;;13.10;7.43;;;;;;;;;;519898;28;1101;-71
2023/11/26 01:12:46;;;;;;;12.77;7.30;;;;;;;;;;519710;28;887;-71
2023/11/26 01:13:02;;;;;;;12.18;7.13;;;;;;;;;;517990;28;835;-71
2023/11/26 01:13:17;;;;;;;12.53;7.23;;;;;;;;;;519774;28;977;-71
2023/11/26 01:13:32;;;;;;;12.55;7.30;;;;;;;;;;519346;28;1017;-71
2023/11/26 01:13:48;;;;;;;11.50;7.00;;;;;;;;;;519484;28;808;-71
2023/11/26 01:14:04;;;;;;;11.93;6.93;;;;;;;;;;519553;28;1048;-71
2023/11/26 01:14:19;;;;;;;12.70;6.90;;;;;;;;;;521452;28;1459;-71
2023/11/26 01:14:34;;;;;;;12.80;7.10;;;;;;;;;;521827;28;989;-72
2023/11/26 01:14:50;;;;;;;13.00;7.13;;;;;;;;;;522057;28;890;-72
2023/11/26 01:15:08;;;;;;;12.63;7.00;;;;;;;;;;523829;28;811;-72
2023/11/26 01:15:23;;;;;;;11.82;7.10;;;;;;;;;;523220;28;1802;-72
2023/11/26 01:15:39;;;;;;;11.67;7.10;;;;;;;;;;521232;28;1266;-71
2023/11/26 01:15:54;;;;;;;11.57;7.20;;;;;;;;;;521779;28;913;-72
2023/11/26 01:16:09;;;;;;;12.93;7.22;;;;;;;;;;519655;28;914;-71
2023/11/26 01:16:25;;;;;;;12.00;7.10;;;;;;;;;;520311;28;1033;-72
2023/11/26 01:16:40;;;;;;;10.90;6.90;;;;;;;;;;521458;28;756;-71
2023/11/26 01:16:55;;;;;;;12.93;7.05;;;;;;;;;;519652;28;854;-71
2023/11/26 01:17:10;;;;;;;12.73;7.17;;;;;;;;;;519521;28;1143;-71
2023/11/26 01:17:26;;;;;;;11.97;7.13;;;;;;;;;;519729;28;1112;-71
2023/11/26 01:17:42;;;;;;;13.95;7.32;;;;;;;;;;519610;28;1335;-72
2023/11/26 01:17:57;;;;;;;13.10;7.25;;;;;;;;;;519664;28;858;-71
2023/11/26 01:18:13;;;;;;;11.90;7.10;;;;;;;;;;519688;28;902;-71
2023/11/26 01:18:28;;;;;;;11.63;7.27;;;;;;;;;;520662;28;1065;-71
2023/11/26 01:18:43;;;;;;;11.48;7.35;;;;;;;;;;519672;28;1388;-72
2023/11/26 01:18:59;;;;;;;11.83;7.27;;;;;;;;;;521251;28;1402;-71
2023/11/26 01:19:14;;;;;;;11.27;7.07;;;;;;;;;;521781;28;910;-71
2023/11/26 01:19:30;;;;;;;10.83;6.97;;;;;;;;;;521930;28;1183;-71
2023/11/26 01:19:45;;;;;;;11.55;7.13;;;;;;;;;;523869;28;1044;-71
2023/11/26 01:20:00;;;;;;;12.70;7.20;;;;;;;;;;523736;28;1024;-71
2023/11/26 01:20:16;;;;;;;12.93;6.93;;;;;;;;;;523809;28;1028;-71
2023/11/26 01:20:32;;;;;;;11.82;6.80;;;;;;;;;;523376;28;1095;-71
2023/11/26 01:20:47;;;;;;;11.60;7.10;;;;;;;;;;521515;28;1312;-72
2023/11/26 01:21:02;;;;;;;12.70;6.93;;;;;;;;;;521809;28;862;-72
2023/11/26 01:21:18;;;;;;;14.30;7.13;;;;;;;;;;521951;28;1036;-71
2023/11/26 01:21:33;;;;;;;13.18;7.45;;;;;;;;;;521658;28;827;-71
2023/11/26 01:21:48;;;;;;;12.73;7.33;;;;;;;;;;521491;28;948;-71
2023/11/26 01:22:04;;;;;;;13.20;7.20;;;;;;;;;;521649;28;930;-71
2023/11/26 01:22:19;;;;;;;12.50;7.43;;;;;;;;;;521811;28;1123;-71
2023/11/26 01:22:34;;;;;;;11.80;7.40;;;;;;;;;;523840;28;937;-71
2023/11/26 01:22:49;;;;;;;10.37;7.00;;;;;;;;;;521467;28;1420;-71
2023/11/26 01:23:05;;;;;;;11.77;6.93;;;;;;;;;;521877;28;883;-71
2023/11/26 01:23:20;;;;;;;15.30;7.37;;;;;;;;;;521808;28;1099;-71
2023/11/26 01:23:35;;;;;;;15.90;7.63;;;;;;;;;;523948;28;810;-71
2023/11/26 01:23:53;;;;;;;13.68;7.50;;;;;;;;;;523409;28;818;-71
2023/11/26 01:24:08;;;;;;;11.80;7.32;;;;;;;;;;523697;28;1615;-71
2023/11/26 01:24:23;;;;;;;12.03;7.40;;;;;;;;;;523666;28;1024;-71
2023/11/26 01:24:39;;;;;;;12.43;7.43;;;;;;;;;;523890;28;921;-71
2023/11/26 01:24:54;;;;;;;13.03;7.50;;;;;;;;;;521554;28;1895;-72
2023/11/26 01:25:09;;;;;;;13.10;7.57;;;;;;;;;;520443;28;927;-71
2023/11/26 01:25:25;;;;;;;12.13;7.60;;;;;;;;;;521702;28;1048;-71
2023/11/26 01:25:40;;;;;;;12.73;7.43;;;;;;;;;;519977;28;918;-71
2023/11/26 01:25:55;;;;;;;12.90;7.53;;;;;;;;;;520090;28;1182;-71
2023/11/26 01:26:11;;;;;;;12.27;7.50;;;;;;;;;;521968;28;1122;-71
2023/11/26 01:26:26;;;;;;;11.63;7.22;;;;;;;;;;520683;28;1172;-71
2023/11/26 01:26:41;;;;;;;13.40;7.43;;;;;;;;;;519983;28;890;-72
2023/11/26 01:26:57;;;;;;;15.00;7.50;;;;;;;;;;520242;28;855;-72
2023/11/26 01:27:12;;;;;;;12.43;7.20;;;;;;;;;;522162;28;997;-72
2023/11/26 01:27:27;;;;;;;11.43;7.30;;;;;;;;;;520686;28;1032;-71
2023/11/26 01:27:43;;;;;;;12.90;7.40;;;;;;;;;;520030;28;1195;-71
2023/11/26 01:27:58;;;;;;;13.47;7.17;;;;;;;;;;517823;28;1914;-71
2023/11/26 01:28:14;;;;;;;11.73;7.23;;;;;;;;;;516987;28;2398;-71
2023/11/26 01:28:29;;;;;;;13.38;7.47;;;;;;;;;;520128;28;2355;-71
2023/11/26 01:28:44;;;;;;;15.07;7.70;;;;;;;;;;521051;28;803;-72
2023/11/26 01:29:00;;;;;;;12.93;7.50;;;;;;;;;;521642;28;899;-71
2023/11/26 01:29:15;;;;;;;12.93;7.30;;;;;;;;;;522194;28;814;-71
2023/11/26 01:29:30;;;;;;;13.65;7.40;;;;;;;;;;523751;28;1179;-71
2023/11/26 01:29:46;;;;;;;12.47;7.40;;;;;;;;;;524531;28;747;-72
2023/11/26 01:30:01;;;;;;;14.07;7.63;;;;;;;;;;526320;28;855;-71
2023/11/26 01:30:16;;;;;;;14.07;7.50;;;;;;;;;;526471;28;1046;-71
2023/11/26 01:30:32;;;;;;;12.50;7.32;;;;;;;;;;524361;28;1095;-71
2023/11/26 01:30:47;;;;;;;12.57;7.60;;;;;;;;;;523363;28;1773;-71
2023/11/26 01:31:03;;;;;;;12.57;7.65;;;;;;;;;;522672;28;1749;-71
2023/11/26 01:31:19;;;;;;;13.93;7.53;;;;;;;;;;522585;28;1745;-71
2023/11/26 01:31:34;;;;;;;13.50;7.35;;;;;;;;;;524053;28;1148;-71
2023/11/26 01:31:49;;;;;;;12.07;7.20;;;;;;;;;;522060;28;1410;-72
2023/11/26 01:32:05;;;;;;;14.63;7.47;;;;;;;;;;520803;28;1771;-71
2023/11/26 01:32:20;;;;;;;15.18;7.35;;;;;;;;;;522425;28;918;-71
2023/11/26 01:32:36;;;;;;;13.07;7.30;;;;;;;;;;522779;28;914;-71
2023/11/26 01:32:51;;;;;;;12.87;7.37;;;;;;;;;;522168;28;894;-71
2023/11/26 01:33:07;;;;;;;12.18;7.20;;;;;;;;;;521986;28;994;-71
2023/11/26 01:33:23;;;;;;;9.98;7.00;;;;;;;;;;522615;28;1049;-72
2023/11/26 01:33:39;;;;;;;11.87;7.20;;;;;;;;;;524783;28;810;-71
2023/11/26 01:33:54;;;;;;;14.02;7.40;;;;;;;;;;526083;28;865;-71
2023/11/26 01:34:10;;;;;;;12.40;7.03;;;;;;;;;;522998;28;1322;-71
2023/11/26 01:34:25;;;;;;;10.37;6.70;;;;;;;;;;522070;28;1101;-71
2023/11/26 01:34:40;;;;;;;11.00;6.75;;;;;;;;;;522200;28;811;-71
2023/11/26 01:34:56;;;;;;;11.80;7.23;;;;;;;;;;522228;28;989;-72
2023/11/26 01:35:11;;;;;;;13.05;7.47;;;;;;;;;;521994;28;815;-71
2023/11/26 01:35:26;;;;;;;12.50;7.20;;;;;;;;;;523190;28;1036;-71